createdAt,value
2023-05-20T00:01:20.650Z,10.30
2023-05-20T00:03:47.830Z,10.20
2023-05-20T00:06:15.035Z,10.50
2023-05-20T00:08:42.152Z,10.30
2023-05-20T00:11:09.302Z,10.50
2023-05-20T00:13:36.327Z,10.50
2023-05-20T00:16:03.459Z,10.90
2023-05-20T00:18:30.936Z,10.60
2023-05-20T00:20:58.551Z,11.50
2023-05-20T00:23:25.568Z,10.30
2023-05-20T00:25:52.572Z,10.60
2023-05-20T00:28:20.042Z,10.90
2023-05-20T00:30:47.368Z,10.50
2023-05-20T00:33:14.438Z,10.50
2023-05-20T00:35:41.526Z,10.20
2023-05-20T00:38:08.544Z,10.70
2023-05-20T00:40:35.656Z,10.60
2023-05-20T00:43:03.288Z,10.40
2023-05-20T00:45:31.224Z,10.50
2023-05-20T00:48:01.758Z,9.60
2023-05-20T00:50:29.223Z,10.30
2023-05-20T00:52:56.524Z,10.90
2023-05-20T00:55:23.714Z,10.90
2023-05-20T00:57:51.048Z,11.20
2023-05-20T01:00:18.322Z,10.80
2023-05-20T01:02:45.459Z,10.80
2023-05-20T01:05:12.614Z,10.20
2023-05-20T01:07:40.015Z,10.50
2023-05-20T01:10:07.718Z,10.50
2023-05-20T01:13:02.338Z,11.20
2023-05-20T01:15:29.597Z,10.90
2023-05-20T01:18:01.739Z,11.30
2023-05-20T01:20:29.509Z,11.20
2023-05-20T01:22:57.160Z,11.00
2023-05-20T01:25:25.302Z,11.20
2023-05-20T01:27:53.087Z,11.00
2023-05-20T01:30:21.036Z,11.10
2023-05-20T01:32:54.666Z,11.10
2023-05-20T01:35:23.157Z,10.60
2023-05-20T01:37:51.106Z,11.50
2023-05-20T01:40:18.392Z,11.30
2023-05-20T01:42:46.234Z,11.70
2023-05-20T01:45:13.704Z,12.60
2023-05-20T01:47:41.111Z,11.30
2023-05-20T01:50:09.078Z,11.10
2023-05-20T01:52:36.631Z,11.00
2023-05-20T01:55:03.980Z,11.50
2023-05-20T01:57:31.229Z,11.30
2023-05-20T01:59:58.747Z,10.90
2023-05-20T02:02:26.558Z,10.90
2023-05-20T02:04:54.399Z,11.40
2023-05-20T02:07:21.520Z,11.50
2023-05-20T02:09:48.670Z,14.80
2023-05-20T02:12:18.761Z,12.20
2023-05-20T02:14:47.142Z,13.60
2023-05-20T02:17:19.253Z,13.00
2023-05-20T02:19:47.346Z,14.20
2023-05-20T02:22:14.837Z,13.70
2023-05-20T02:24:43.933Z,14.10
2023-05-20T02:27:11.113Z,13.90
2023-05-20T02:29:38.212Z,12.50
2023-05-20T02:32:05.703Z,13.60
2023-05-20T02:34:33.249Z,12.20
2023-05-20T02:37:00.496Z,13.20
2023-05-20T02:39:28.777Z,12.80
2023-05-20T02:41:56.585Z,13.20
2023-05-20T02:44:24.143Z,13.10
2023-05-20T02:46:51.292Z,12.40
2023-05-20T02:49:18.435Z,13.60
2023-05-20T02:51:45.853Z,13.00
2023-05-20T02:54:13.135Z,12.40
2023-05-20T02:56:40.518Z,12.40
2023-05-20T02:59:07.600Z,12.50
2023-05-20T03:01:36.261Z,13.00
2023-05-20T03:04:03.760Z,12.80
2023-05-20T03:06:32.224Z,12.30
2023-05-20T03:08:59.697Z,12.40
2023-05-20T03:11:26.954Z,12.20
2023-05-20T03:13:54.049Z,12.30
2023-05-20T03:16:21.180Z,11.70
2023-05-20T03:18:48.617Z,12.40
2023-05-20T03:21:15.986Z,11.70
2023-05-20T03:23:43.691Z,11.10
2023-05-20T03:26:10.883Z,10.60
2023-05-20T03:28:38.038Z,11.00
2023-05-20T03:31:05.471Z,10.80
2023-05-20T03:33:34.895Z,9.40
2023-05-20T03:36:02.160Z,9.50
2023-05-20T03:38:29.516Z,9.80
2023-05-20T03:40:56.573Z,9.40
2023-05-20T03:43:23.736Z,9.40
2023-05-20T03:45:51.297Z,9.20
2023-05-20T03:48:18.471Z,9.30
2023-05-20T03:50:46.304Z,9.30
2023-05-20T03:53:13.311Z,8.60
2023-05-20T03:55:42.696Z,8.90
2023-05-20T03:58:10.827Z,8.80
2023-05-20T04:00:37.878Z,8.20
2023-05-20T04:03:06.080Z,8.50
2023-05-20T04:05:33.596Z,8.60
2023-05-20T04:08:01.362Z,8.80
2023-05-20T04:10:28.425Z,7.50
2023-05-20T04:12:55.795Z,7.60
2023-05-20T04:15:24.174Z,7.80
2023-05-20T04:17:56.392Z,7.50
2023-05-20T04:20:24.698Z,7.50
2023-05-20T04:22:55.376Z,7.20
2023-05-20T04:25:22.452Z,7.60
2023-05-20T04:27:50.316Z,8.00
2023-05-20T04:30:18.805Z,7.50
2023-05-20T04:32:45.938Z,7.70
2023-05-20T04:35:14.132Z,7.60
2023-05-20T04:37:44.893Z,7.70
2023-05-20T04:40:13.952Z,7.60
2023-05-20T04:42:41.433Z,7.70
2023-05-20T04:45:08.985Z,7.60
2023-05-20T04:47:39.344Z,7.50
2023-05-20T04:50:11.091Z,8.90
2023-05-20T04:52:42.068Z,8.50
2023-05-20T04:55:12.742Z,7.90
2023-05-20T04:57:42.222Z,7.70
2023-05-20T05:00:11.313Z,7.60
2023-05-20T05:02:38.617Z,7.40
2023-05-20T05:05:06.378Z,7.50
2023-05-20T05:07:33.795Z,7.50
2023-05-20T05:10:01.535Z,7.20
2023-05-20T05:12:30.896Z,7.20
2023-05-20T05:14:59.043Z,7.00
2023-05-20T05:17:26.565Z,7.00
2023-05-20T05:19:53.765Z,6.80
2023-05-20T05:22:21.881Z,7.00
2023-05-20T05:24:49.464Z,6.70
2023-05-20T05:27:17.078Z,6.60
2023-05-20T05:29:44.189Z,6.70
2023-05-20T05:32:11.420Z,6.70
2023-05-20T05:34:38.545Z,6.70
2023-05-20T05:37:05.681Z,6.60
2023-05-20T05:39:33.030Z,6.80
2023-05-20T05:42:00.195Z,6.30
2023-05-20T05:44:27.933Z,6.70
2023-05-20T05:46:55.125Z,6.70
2023-05-20T05:49:22.355Z,6.30
2023-05-20T05:51:50.849Z,6.70
2023-05-20T05:54:19.512Z,6.10
2023-05-20T05:56:46.845Z,6.60
2023-05-20T05:59:13.997Z,6.40
2023-05-20T06:01:41.074Z,6.50
2023-05-20T06:04:08.485Z,7.00
2023-05-20T06:06:36.145Z,6.10
2023-05-20T06:09:03.501Z,6.60
2023-05-20T06:11:30.601Z,6.20
2023-05-20T06:13:58.910Z,6.80
2023-05-20T06:16:26.077Z,7.10
2023-05-20T06:18:57.396Z,6.90
2023-05-20T06:21:24.744Z,7.00
2023-05-20T06:23:51.825Z,6.60
2023-05-20T06:26:19.030Z,6.80
2023-05-20T06:28:46.912Z,6.60
2023-05-20T06:31:13.968Z,6.40
2023-05-20T06:33:41.485Z,7.00
2023-05-20T06:36:12.009Z,7.10
2023-05-20T06:38:39.085Z,6.60
2023-05-20T06:41:06.682Z,6.60
2023-05-20T06:43:34.136Z,6.90
2023-05-20T06:46:05.752Z,6.50
2023-05-20T06:48:50.555Z,6.90
2023-05-20T06:51:17.861Z,6.60
2023-05-20T06:53:47.067Z,6.30
2023-05-20T06:56:14.922Z,6.30
2023-05-20T06:58:41.983Z,5.90
2023-05-20T07:01:09.349Z,6.70
2023-05-20T07:03:36.718Z,6.30
2023-05-20T07:06:03.936Z,6.00
2023-05-20T07:08:31.436Z,5.70
2023-05-20T07:10:58.800Z,5.60
2023-05-20T07:13:26.524Z,5.80
2023-05-20T07:15:53.803Z,5.80
2023-05-20T07:18:21.985Z,5.90
2023-05-20T07:20:53.317Z,5.40
2023-05-20T07:23:43.628Z,5.50
2023-05-20T07:26:10.786Z,6.10
2023-05-20T07:28:38.863Z,5.70
2023-05-20T07:31:06.076Z,5.70
2023-05-20T07:33:38.954Z,5.70
2023-05-20T07:36:07.183Z,5.40
2023-05-20T07:38:35.853Z,5.30
2023-05-20T07:41:07.050Z,5.30
2023-05-20T07:43:34.362Z,5.70
2023-05-20T07:46:03.045Z,5.40
2023-05-20T07:48:30.405Z,5.50
2023-05-20T07:50:59.455Z,5.30
2023-05-20T07:53:27.605Z,5.80
2023-05-20T07:55:55.025Z,5.60
2023-05-20T07:58:22.307Z,5.50
2023-05-20T08:00:50.250Z,5.20
2023-05-20T08:03:17.689Z,5.50
2023-05-20T08:06:14.411Z,5.10
2023-05-20T08:08:43.400Z,5.10
2023-05-20T08:11:17.581Z,5.30
2023-05-20T08:13:44.658Z,4.80
2023-05-20T08:16:12.080Z,4.60
2023-05-20T08:18:39.600Z,4.50
2023-05-20T08:21:10.257Z,4.50
2023-05-20T08:23:40.145Z,4.90
2023-05-20T08:26:08.049Z,4.60
2023-05-20T08:28:38.231Z,4.60
2023-05-20T08:31:05.519Z,4.50
2023-05-20T08:33:32.936Z,4.10
2023-05-20T08:36:00.130Z,4.20
2023-05-20T08:38:27.304Z,4.10
2023-05-20T08:40:56.009Z,3.90
2023-05-20T08:43:24.021Z,4.40
2023-05-20T08:45:55.036Z,3.90
2023-05-20T08:48:24.032Z,4.20
2023-05-20T08:50:51.840Z,3.70
2023-05-20T08:53:19.439Z,3.80
2023-05-20T08:55:47.430Z,3.90
2023-05-20T08:58:16.165Z,3.90
2023-05-20T09:00:43.392Z,3.20
2023-05-20T09:03:10.542Z,3.20
2023-05-20T09:05:37.797Z,2.80
2023-05-20T09:08:09.042Z,3.20
2023-05-20T09:10:36.773Z,3.10
2023-05-20T09:13:05.038Z,2.80
2023-05-20T09:15:33.481Z,2.90
2023-05-20T09:18:05.866Z,3.20
2023-05-20T09:20:34.807Z,2.90
2023-05-20T09:23:02.553Z,3.10
2023-05-20T09:25:29.793Z,3.10
2023-05-20T09:29:34.778Z,12.40
2023-05-20T09:32:02.529Z,3.10
2023-05-20T09:34:29.640Z,2.90
2023-05-20T09:36:56.708Z,3.20
2023-05-20T09:39:30.897Z,3.00
2023-05-20T09:41:58.533Z,3.30
2023-05-20T09:44:25.798Z,3.60
2023-05-20T09:46:53.496Z,3.10
2023-05-20T09:49:20.680Z,3.20
2023-05-20T09:51:47.707Z,3.40
2023-05-20T09:54:15.305Z,2.90
2023-05-20T09:56:43.023Z,3.30
2023-05-20T09:59:10.133Z,3.20
2023-05-20T10:01:37.311Z,2.70
2023-05-20T10:04:05.796Z,3.20
2023-05-20T10:06:51.553Z,2.90
2023-05-20T10:09:21.806Z,3.30
2023-05-20T10:12:08.257Z,3.10
2023-05-20T10:15:01.836Z,3.50
2023-05-20T10:17:38.717Z,3.30
2023-05-20T10:20:09.397Z,3.50
2023-05-20T10:22:36.591Z,3.00
2023-05-20T10:25:08.193Z,3.10
2023-05-20T10:27:48.020Z,3.10
2023-05-20T10:30:19.840Z,3.20
2023-05-20T10:32:57.724Z,3.00
2023-05-20T10:35:28.251Z,3.40
2023-05-20T10:37:56.284Z,3.20
2023-05-20T10:40:23.510Z,5.00
2023-05-20T10:42:50.590Z,3.30
2023-05-20T10:45:30.264Z,3.00
2023-05-20T10:47:58.150Z,3.40
2023-05-20T10:50:35.552Z,3.40
2023-05-20T10:53:08.206Z,3.40
2023-05-20T10:55:40.919Z,3.10
2023-05-20T10:58:08.128Z,3.40
2023-05-20T11:00:37.376Z,3.20
2023-05-20T11:03:05.927Z,3.60
2023-05-20T11:05:33.771Z,3.00
2023-05-20T11:08:04.438Z,3.10
2023-05-20T11:10:36.408Z,3.20
2023-05-20T11:13:04.817Z,2.80
2023-05-20T11:15:32.385Z,2.80
2023-05-20T11:18:02.234Z,2.90
2023-05-20T11:20:29.883Z,3.00
2023-05-20T11:22:57.092Z,2.90
2023-05-20T11:25:24.234Z,3.00
2023-05-20T11:27:52.240Z,3.50
2023-05-20T11:30:20.698Z,2.80
2023-05-20T11:33:01.140Z,2.90
2023-05-20T11:35:32.554Z,2.90
2023-05-20T11:38:07.903Z,2.80
2023-05-20T11:40:49.206Z,3.00
2023-05-20T11:43:18.165Z,3.40
2023-05-20T11:45:46.680Z,3.10
2023-05-20T11:48:15.856Z,3.30
2023-05-20T11:50:43.964Z,3.50
2023-05-20T11:53:12.251Z,3.80
2023-05-20T11:55:59.654Z,3.60
2023-05-20T11:58:29.631Z,3.20
2023-05-20T12:01:02.314Z,2.90
2023-05-20T12:03:37.174Z,2.90
2023-05-20T12:06:04.575Z,3.00
2023-05-20T12:08:32.174Z,3.10
2023-05-20T12:10:59.316Z,2.80
2023-05-20T12:13:26.757Z,3.10
2023-05-20T12:15:53.814Z,3.10
2023-05-20T12:18:20.989Z,3.00
2023-05-20T12:20:48.063Z,2.70
2023-05-20T12:23:15.302Z,3.00
2023-05-20T12:25:42.499Z,3.00
2023-05-20T12:28:09.538Z,2.90
2023-05-20T12:30:36.771Z,2.60
2023-05-20T12:33:04.249Z,2.80
2023-05-20T12:35:41.820Z,2.80
2023-05-20T12:38:09.134Z,2.80
2023-05-20T12:40:36.850Z,2.60
2023-05-20T12:43:04.905Z,2.40
2023-05-20T12:45:31.999Z,3.10
2023-05-20T12:47:59.364Z,2.50
2023-05-20T12:50:27.084Z,3.20
2023-05-20T12:52:54.170Z,2.90
2023-05-20T12:55:21.418Z,2.50
2023-05-20T12:57:48.571Z,2.80
2023-05-20T13:00:16.731Z,3.00
2023-05-20T13:02:44.596Z,2.30
2023-05-20T13:05:11.816Z,2.60
2023-05-20T13:07:39.038Z,2.60
2023-05-20T13:10:07.587Z,2.80
2023-05-20T13:12:35.453Z,2.70
2023-05-20T13:15:02.720Z,2.60
2023-05-20T13:17:29.812Z,2.70
2023-05-20T13:19:59.301Z,2.70
2023-05-20T13:22:31.237Z,2.80
2023-05-20T13:24:59.373Z,2.90
2023-05-20T13:27:27.144Z,2.60
2023-05-20T13:29:54.333Z,2.60
2023-05-20T13:32:21.662Z,2.50
2023-05-20T13:34:49.042Z,2.60
2023-05-20T13:37:16.264Z,2.50
2023-05-20T13:39:43.575Z,2.60
2023-05-20T13:42:10.688Z,2.60
2023-05-20T13:44:37.954Z,2.70
2023-05-20T13:47:05.238Z,2.60
2023-05-20T13:49:32.406Z,2.50
2023-05-20T13:51:59.596Z,2.30
2023-05-20T13:54:26.653Z,2.40
2023-05-20T13:56:53.676Z,2.90
2023-05-20T13:59:20.700Z,2.40
2023-05-20T14:01:47.817Z,2.30
2023-05-20T14:04:14.906Z,2.50
2023-05-20T14:06:42.376Z,2.50
2023-05-20T14:09:09.475Z,2.60
2023-05-20T14:11:37.071Z,2.60
2023-05-20T14:14:04.309Z,2.60
2023-05-20T14:16:31.846Z,2.40
2023-05-20T14:18:59.173Z,2.50
2023-05-20T14:21:26.466Z,2.50
2023-05-20T14:23:53.577Z,2.50
2023-05-20T14:26:21.865Z,2.40
2023-05-20T14:28:49.434Z,2.50
2023-05-20T14:31:16.677Z,2.60
2023-05-20T14:33:43.728Z,2.40
2023-05-20T14:36:10.968Z,2.40
2023-05-20T14:38:38.050Z,2.40
2023-05-20T14:41:05.143Z,2.40
2023-05-20T14:43:32.466Z,2.60
2023-05-20T14:45:59.545Z,2.40
2023-05-20T14:48:26.774Z,2.50
2023-05-20T14:50:53.816Z,2.70
2023-05-20T14:53:20.915Z,2.80
2023-05-20T14:55:48.012Z,2.80
2023-05-20T14:58:15.102Z,2.70
2023-05-20T15:00:42.213Z,2.50
2023-05-20T15:03:09.443Z,2.80
2023-05-20T15:05:36.742Z,2.60
2023-05-20T15:08:04.062Z,2.40
2023-05-20T15:10:31.097Z,2.60
2023-05-20T15:12:58.172Z,2.70
2023-05-20T15:15:25.334Z,2.50
2023-05-20T15:17:52.465Z,2.50
2023-05-20T15:20:19.677Z,2.80
2023-05-20T15:22:48.494Z,2.40
2023-05-20T15:25:15.563Z,2.60
2023-05-20T15:27:42.678Z,2.60
2023-05-20T15:30:10.420Z,2.70
2023-05-20T15:32:37.830Z,2.80
2023-05-20T15:35:05.642Z,2.70
2023-05-20T15:37:32.683Z,2.90
2023-05-20T15:39:59.685Z,2.80
2023-05-20T15:42:27.125Z,3.20
2023-05-20T15:44:54.248Z,2.90
2023-05-20T15:47:21.786Z,2.60
2023-05-20T15:49:49.023Z,2.70
2023-05-20T15:52:16.362Z,2.90
2023-05-20T15:54:43.470Z,2.70
2023-05-20T15:57:10.992Z,2.70
2023-05-20T15:59:38.141Z,3.30
2023-05-20T16:02:05.534Z,3.80
2023-05-20T16:04:33.025Z,4.30
2023-05-20T16:07:00.217Z,4.20
2023-05-20T16:09:27.868Z,4.00
2023-05-20T16:11:56.329Z,3.90
2023-05-20T16:14:25.408Z,4.00
2023-05-20T16:16:53.028Z,3.80
2023-05-20T16:19:20.314Z,4.30
2023-05-20T16:21:47.461Z,3.70
2023-05-20T16:24:17.891Z,3.50
2023-05-20T16:26:44.979Z,3.50
2023-05-20T16:29:13.001Z,5.20
2023-05-20T16:31:41.654Z,4.70
2023-05-20T16:34:08.760Z,4.90
2023-05-20T16:36:36.841Z,4.70
2023-05-20T16:39:04.248Z,4.40
2023-05-20T16:41:31.644Z,4.80
2023-05-20T16:43:59.238Z,4.10
2023-05-20T16:46:26.615Z,3.80
2023-05-20T16:48:53.728Z,3.60
2023-05-20T16:51:20.856Z,3.40
2023-05-20T16:53:47.861Z,3.20
2023-05-20T16:56:15.139Z,3.70
2023-05-20T16:58:42.300Z,5.00
2023-05-20T17:01:09.381Z,4.40
2023-05-20T17:03:36.617Z,4.20
2023-05-20T17:06:03.826Z,4.20
2023-05-20T17:08:30.952Z,4.30
2023-05-20T17:10:58.066Z,4.60
2023-05-20T17:13:25.259Z,5.70
2023-05-20T17:15:52.280Z,6.60
2023-05-20T17:18:19.340Z,7.10
2023-05-20T17:20:46.624Z,4.10
2023-05-20T17:23:15.061Z,3.70
2023-05-20T17:25:42.144Z,3.20
2023-05-20T17:28:09.405Z,3.70
2023-05-20T17:30:37.041Z,3.50
2023-05-20T17:33:04.437Z,3.70
2023-05-20T17:35:31.922Z,3.60
2023-05-20T17:37:58.971Z,3.60
2023-05-20T17:40:26.085Z,3.50
2023-05-20T17:42:53.259Z,3.20
2023-05-20T17:45:20.365Z,3.60
2023-05-20T17:47:47.478Z,3.10
2023-05-20T17:50:15.586Z,3.50
2023-05-20T17:52:42.698Z,3.50
2023-05-20T17:55:10.000Z,3.50
2023-05-20T17:57:37.143Z,3.20
2023-05-20T18:00:05.882Z,3.50
2023-05-20T18:02:32.933Z,3.50
2023-05-20T18:05:00.156Z,3.40
2023-05-20T18:07:28.143Z,3.60
2023-05-20T18:09:55.465Z,3.40
2023-05-20T18:12:22.578Z,3.40
2023-05-20T18:14:49.609Z,3.30
2023-05-20T18:17:16.944Z,3.40
2023-05-20T18:19:44.015Z,3.20
2023-05-20T18:22:11.165Z,3.10
2023-05-20T18:24:38.189Z,3.10
2023-05-20T18:27:05.849Z,3.20
2023-05-20T18:29:33.067Z,3.20
2023-05-20T18:32:00.299Z,4.10
2023-05-20T18:34:28.435Z,3.30
2023-05-20T18:36:55.493Z,3.10
2023-05-20T18:39:22.641Z,3.10
2023-05-20T18:41:49.804Z,3.20
2023-05-20T18:44:18.542Z,3.30
2023-05-20T18:46:46.680Z,3.30
2023-05-20T18:49:14.458Z,3.20
2023-05-20T18:51:41.721Z,3.30
2023-05-20T18:54:08.788Z,3.20
2023-05-20T18:56:36.082Z,3.10
2023-05-20T18:59:03.384Z,3.30
2023-05-20T19:01:30.639Z,3.50
2023-05-20T19:03:57.866Z,3.70
2023-05-20T19:06:25.039Z,3.60
2023-05-20T19:08:52.100Z,3.50
2023-05-20T19:11:19.217Z,3.40
2023-05-20T19:13:46.594Z,3.70
2023-05-20T19:16:13.755Z,3.20
2023-05-20T19:18:41.214Z,3.70
2023-05-20T19:21:08.324Z,3.40
2023-05-20T19:23:38.336Z,3.50
2023-05-20T19:26:05.736Z,3.50
2023-05-20T19:28:32.762Z,3.60
2023-05-20T19:31:00.034Z,4.50
2023-05-20T19:33:27.269Z,5.50
2023-05-20T19:35:54.574Z,5.90
2023-05-20T19:38:21.770Z,4.50
2023-05-20T19:40:48.864Z,3.70
2023-05-20T19:43:16.131Z,3.50
2023-05-20T19:45:43.201Z,3.60
2023-05-20T19:48:10.452Z,4.70
2023-05-20T19:50:38.215Z,3.90
2023-05-20T19:53:07.533Z,3.30
2023-05-20T19:55:36.352Z,3.20
2023-05-20T19:58:03.791Z,3.10
2023-05-20T20:00:31.089Z,3.10
2023-05-20T20:02:59.561Z,3.40
2023-05-20T20:05:26.949Z,3.10
2023-05-20T20:07:54.307Z,3.00
2023-05-20T20:10:21.553Z,3.50
2023-05-20T20:12:48.993Z,3.20
2023-05-20T20:15:17.125Z,3.20
2023-05-20T20:17:45.800Z,3.40
2023-05-20T20:20:14.487Z,3.30
2023-05-20T20:22:42.041Z,3.50
2023-05-20T20:25:09.188Z,3.40
2023-05-20T20:27:36.267Z,3.90
2023-05-20T20:30:03.625Z,3.10
2023-05-20T20:32:30.819Z,3.70
2023-05-20T20:34:58.354Z,3.40
2023-05-20T20:37:27.034Z,3.80
2023-05-20T20:39:57.419Z,3.60
2023-05-20T20:42:24.503Z,3.40
2023-05-20T20:44:52.740Z,3.80
2023-05-20T20:47:19.901Z,3.80
2023-05-20T20:49:46.922Z,4.30
2023-05-20T20:52:14.002Z,4.50
2023-05-20T20:54:43.314Z,4.40
2023-05-20T20:57:11.703Z,4.20
2023-05-20T20:59:40.023Z,4.00
2023-05-20T21:02:07.062Z,4.50
2023-05-20T21:04:34.342Z,3.80
2023-05-20T21:07:02.340Z,3.80
2023-05-20T21:09:29.489Z,3.80
2023-05-20T21:11:57.457Z,3.80
2023-05-20T21:14:25.498Z,4.20
2023-05-20T21:16:52.594Z,4.00
2023-05-20T21:19:19.935Z,4.00
2023-05-20T21:21:47.148Z,3.90
2023-05-20T21:24:14.246Z,3.90
2023-05-20T21:26:41.284Z,3.70
2023-05-20T21:29:10.221Z,3.90
2023-05-20T21:31:37.336Z,3.70
2023-05-20T21:34:04.608Z,4.00
2023-05-20T21:36:32.623Z,3.80
2023-05-20T21:38:59.753Z,3.90
2023-05-20T21:41:27.524Z,3.90
2023-05-20T21:43:54.631Z,3.70
2023-05-20T21:47:20.783Z,4.60
2023-05-20T21:49:48.526Z,4.40
2023-05-20T21:52:15.680Z,4.40
2023-05-20T21:54:42.838Z,4.30
2023-05-20T21:57:09.867Z,4.40
2023-05-20T21:59:36.952Z,4.70
2023-05-20T22:02:04.209Z,4.80
2023-05-20T22:04:33.574Z,4.60
2023-05-20T22:07:00.801Z,4.80
2023-05-20T22:09:27.986Z,4.90
2023-05-20T22:11:55.429Z,5.20
2023-05-20T22:14:23.874Z,5.00
2023-05-20T22:16:51.055Z,5.30
2023-05-20T22:19:18.255Z,4.70
2023-05-20T22:21:50.667Z,4.70
2023-05-20T22:26:45.373Z,5.20
2023-05-20T22:29:12.570Z,5.00
2023-05-20T22:31:39.896Z,5.00
2023-05-20T22:34:07.086Z,5.20
2023-05-20T22:36:34.454Z,5.00
2023-05-20T22:39:02.611Z,5.00
2023-05-20T22:41:29.719Z,5.50
2023-05-20T22:43:59.513Z,5.20
2023-05-20T22:46:26.770Z,5.20
2023-05-20T22:48:54.709Z,5.00
2023-05-20T22:51:21.819Z,5.40
2023-05-20T22:53:49.028Z,5.10
2023-05-20T22:56:16.301Z,5.00
2023-05-20T22:58:43.915Z,5.30
2023-05-20T23:01:11.070Z,5.00
2023-05-20T23:03:38.338Z,5.00
2023-05-20T23:06:05.738Z,4.60
2023-05-20T23:08:32.849Z,4.60
2023-05-20T23:10:59.938Z,4.60
2023-05-20T23:13:27.078Z,4.90
2023-05-20T23:15:54.585Z,4.90
2023-05-20T23:18:21.780Z,4.70
2023-05-20T23:20:49.254Z,4.90
2023-05-20T23:23:17.160Z,4.10
2023-05-20T23:25:45.858Z,4.40
2023-05-20T23:28:13.165Z,4.70
2023-05-20T23:30:40.301Z,4.60
2023-05-20T23:33:07.548Z,4.40
2023-05-20T23:35:34.966Z,4.30
2023-05-20T23:38:02.521Z,4.50
2023-05-20T23:40:29.608Z,4.50
2023-05-20T23:42:56.652Z,4.60
2023-05-20T23:45:23.685Z,4.30
2023-05-20T23:47:50.858Z,4.40
2023-05-20T23:50:18.043Z,4.60
2023-05-20T23:52:46.483Z,4.40
2023-05-20T23:55:14.534Z,4.40
2023-05-20T23:57:41.749Z,4.60
